Time;durP1;ratioP1;P1;durP2;ratioP2;P2;SDS_P1;SDS_P2;PMS_P1;PMS_P2;Temp;Humidity;BMP_temperature;BMP_pressure;BME280_temperature;BME280_humidity;BME280_pressure;Samples;Min_cycle;Max_cycle;Signal;HPM_P1;HPM_P2
2022/11/17 00:01:59;;;;;;;6.43;4.20;;;;;;;9.01;100.00;98687.59;5032169;28;20041;-71
2022/11/17 00:04:27;;;;;;;11.60;5.07;;;;;;;9.05;100.00;98693.56;5029071;28;20022;-72
2022/11/17 00:06:53;;;;;;;7.55;4.40;;;;;;;9.05;100.00;98690.84;5029862;28;20049;-70
2022/11/17 00:09:18;;;;;;;7.45;4.60;;;;;;;9.07;100.00;98683.41;5048837;28;20082;-71
2022/11/17 00:14:31;;;;;;;8.25;5.00;;;;;;;9.08;100.00;98661.53;5030904;28;20045;-70
2022/11/17 00:16:57;;;;;;;11.82;5.70;;;;;;;9.10;100.00;98659.53;5047231;28;20319;-71
2022/11/17 00:22:07;;;;;;;10.00;5.18;;;;;;;9.10;100.00;98648.69;5027428;28;20068;-73
2022/11/17 00:24:32;;;;;;;9.73;5.30;;;;;;;9.12;100.00;98648.53;5027573;28;20061;-70
2022/11/17 00:27:00;;;;;;;11.38;5.15;;;;;;;9.12;100.00;98633.09;5028394;28;20129;-71
2022/11/17 00:29:26;;;;;;;12.20;4.90;;;;;;;9.14;100.00;98641.09;5029377;28;20846;-72
2022/11/17 00:34:35;;;;;;;10.75;5.32;;;;;;;9.17;100.00;98621.78;5038563;28;20493;-73
2022/11/17 00:37:01;;;;;;;8.07;5.20;;;;;;;9.17;100.00;98598.22;5028673;28;20055;-71
2022/11/17 00:39:27;;;;;;;8.85;4.93;;;;;;;9.18;100.00;98597.19;5028647;28;20037;-71
2022/11/17 00:41:52;;;;;;;9.10;4.97;;;;;;;9.18;100.00;98607.19;5028655;28;20037;-71
2022/11/17 00:44:18;;;;;;;13.57;5.15;;;;;;;9.17;100.00;98603.63;5043309;28;20530;-70
2022/11/17 00:46:43;;;;;;;13.32;4.55;;;;;;;9.16;100.00;98599.22;5024041;28;20514;-70
2022/11/17 00:49:10;;;;;;;7.07;4.18;;;;;;;9.18;100.00;98608.03;5049846;28;20091;-71
2022/11/17 00:51:36;;;;;;;9.73;4.30;;;;;;;9.20;100.00;98600.63;5033739;28;20591;-70
2022/11/17 00:54:02;;;;;;;7.35;3.63;;;;;;;9.22;100.00;98592.31;5032560;28;20044;-71
2022/11/17 00:56:28;;;;;;;11.18;4.60;;;;;;;9.20;100.00;98587.06;5031291;28;20065;-69
2022/11/17 00:58:53;;;;;;;7.45;4.75;;;;;;;9.22;100.00;98592.31;5032328;28;20061;-70
2022/11/17 01:01:19;;;;;;;15.57;4.57;;;;;;;9.24;100.00;98593.03;5049431;28;20033;-71
2022/11/17 01:03:46;;;;;;;9.70;4.22;;;;;;;9.24;100.00;98575.91;5052209;28;20083;-70
2022/11/17 01:06:17;;;;;;;8.55;3.25;;;;;;;9.26;100.00;98557.59;5036855;28;20052;-71
2022/11/17 01:08:42;;;;;;;6.70;3.67;;;;;;;9.27;100.00;98551.16;5031127;28;20045;-73
2022/11/17 01:11:12;;;;;;;8.10;4.10;;;;;;;9.26;100.00;98553.00;5032585;28;20114;-70
2022/11/17 01:13:39;;;;;;;9.23;3.42;;;;;;;9.27;100.00;98565.56;5032407;28;20037;-71
2022/11/17 01:16:07;;;;;;;4.78;3.95;;;;;;;9.27;100.00;98562.84;5032228;28;20051;-70
2022/11/17 01:18:33;;;;;;;6.60;3.50;;;;;;;9.28;100.00;98556.44;5031108;28;20110;-71
2022/11/17 01:21:04;;;;;;;6.68;3.35;;;;;;;9.27;100.00;98541.13;5030342;28;20495;-70
2022/11/17 01:23:31;;;;;;;4.55;2.70;;;;;;;9.29;100.00;98539.13;5030587;28;20072;-70
2022/11/17 01:26:08;;;;;;;6.75;2.80;;;;;;;9.32;100.00;98548.78;5032086;28;20116;-71
2022/11/17 01:28:34;;;;;;;4.30;2.58;;;;;;;9.37;100.00;98554.59;5032069;28;20037;-70
2022/11/17 01:31:09;;;;;;;4.45;2.97;;;;;;;9.38;100.00;98545.47;5031991;28;20489;-71
2022/11/17 01:33:34;;;;;;;4.22;2.63;;;;;;;9.40;100.00;98541.56;5013822;28;20100;-71
2022/11/17 01:36:09;;;;;;;7.97;2.80;;;;;;;9.40;100.00;98536.13;5029283;28;20041;-72
2022/11/17 01:38:35;;;;;;;5.40;2.45;;;;;;;9.38;100.00;98524.59;5043967;28;21610;-72
2022/11/17 01:41:02;;;;;;;2.63;2.22;;;;;;;9.41;100.00;98535.13;5043356;28;20028;-72
2022/11/17 01:43:39;;;;;;;3.90;2.20;;;;;;;9.44;100.00;98525.81;5045937;28;20112;-71
2022/11/17 01:46:22;;;;;;;3.88;2.30;;;;;;;9.47;100.00;98521.94;5033414;28;20493;-72
2022/11/17 01:48:49;;;;;;;3.10;2.80;;;;;;;9.47;100.00;98503.78;5030226;28;20132;-70
2022/11/17 01:51:14;;;;;;;6.97;2.20;;;;;;;9.48;100.00;98491.91;5030521;28;20047;-70
2022/11/17 01:53:41;;;;;;;6.18;2.28;;;;;;;9.50;100.00;98480.88;5013895;28;20480;-70
2022/11/17 01:56:12;;;;;;;4.82;2.47;;;;;;;9.52;100.00;98490.59;5031230;28;20111;-73
2022/11/17 01:58:45;;;;;;;4.78;2.63;;;;;;;9.53;100.00;98513.16;5032678;28;20064;-70
2022/11/17 02:01:10;;;;;;;4.60;2.50;;;;;;;9.52;100.00;98525.88;5028594;28;20118;-71
2022/11/17 02:03:38;;;;;;;2.17;1.95;;;;;;;9.54;100.00;98528.41;5029351;28;20021;-70
2022/11/17 02:06:12;;;;;;;3.08;2.08;;;;;;;9.55;100.00;98500.25;5029901;28;20101;-72
2022/11/17 02:08:40;;;;;;;5.13;2.85;;;;;;;9.56;100.00;98501.94;5047709;28;20037;-71
2022/11/17 02:11:11;;;;;;;6.82;2.33;;;;;;;9.56;100.00;98519.13;5043728;28;20148;-72
2022/11/17 02:13:39;;;;;;;6.18;2.10;;;;;;;9.57;100.00;98518.09;5029618;28;20040;-71
2022/11/17 02:16:05;;;;;;;4.05;2.33;;;;;;;9.58;100.00;98518.94;5027944;28;20034;-70
2022/11/17 02:18:31;;;;;;;7.03;2.05;;;;;;;9.58;100.00;98511.63;5029200;28;20034;-71
2022/11/17 02:21:30;;;;;;;2.35;2.10;;;;;;;9.60;100.00;98515.03;5027298;28;20152;-70
2022/11/17 02:24:16;;;;;;;4.13;2.25;;;;;;;9.61;100.00;98511.31;5028099;28;20072;-71
2022/11/17 02:26:57;;;;;;;4.40;2.25;;;;;;;9.63;100.00;98503.84;5029118;28;20033;-70
2022/11/17 02:29:46;;;;;;;4.30;2.08;;;;;;;9.63;100.00;98490.28;5028836;28;20033;-70
2022/11/17 02:32:23;;;;;;;2.00;1.80;;;;;;;9.62;100.00;98477.72;5029531;28;20041;-70
2022/11/17 02:34:52;;;;;;;2.40;1.63;;;;;;;9.59;100.00;98475.34;5028806;28;20037;-71
2022/11/17 02:37:32;;;;;;;2.38;1.83;;;;;;;9.60;100.00;98457.19;5027963;28;20041;-70
2022/11/17 02:40:12;;;;;;;2.03;1.52;;;;;;;9.60;100.00;98460.75;5028012;28;20041;-70
2022/11/17 02:45:33;;;;;;;5.18;1.50;;;;;;;9.65;100.00;98450.28;5031698;28;20064;-71
2022/11/17 02:48:00;;;;;;;2.83;1.38;;;;;;;9.66;100.00;98435.69;5028578;28;20041;-72
2022/11/17 02:50:28;;;;;;;3.55;1.80;;;;;;;9.67;100.00;98417.50;5031653;28;20066;-70
2022/11/17 02:52:53;;;;;;;3.65;1.35;;;;;;;9.68;100.00;98433.63;5009938;28;20543;-70
2022/11/17 02:55:19;;;;;;;3.70;1.30;;;;;;;9.65;100.00;98414.97;5026836;28;20037;-72
2022/11/17 02:57:44;;;;;;;1.83;1.10;;;;;;;9.64;100.00;98409.69;5027138;28;20029;-71
2022/11/17 03:00:16;;;;;;;8.30;1.58;;;;;;;9.64;100.00;98404.25;5029025;28;20433;-71
2022/11/17 03:02:56;;;;;;;2.10;1.10;;;;;;;9.64;100.00;98410.53;5027595;28;20091;-71
2022/11/17 03:05:32;;;;;;;2.65;1.58;;;;;;;9.61;100.00;98399.19;5028330;28;20045;-71
2022/11/17 03:08:21;;;;;;;1.02;0.95;;;;;;;9.57;100.00;98408.66;5027381;28;20535;-71
2022/11/17 03:10:57;;;;;;;2.33;1.40;;;;;;;9.54;100.00;98404.41;5027399;28;20041;-71
2022/11/17 03:13:55;;;;;;;1.23;1.13;;;;;;;9.54;100.00;98409.00;5026655;28;20040;-71
2022/11/17 03:16:36;;;;;;;1.85;1.20;;;;;;;9.49;100.00;98405.91;5027824;28;20334;-72
2022/11/17 03:19:16;;;;;;;2.47;1.20;;;;;;;9.44;100.00;98392.84;5026700;28;20551;-71
2022/11/17 03:22:09;;;;;;;1.20;1.10;;;;;;;9.40;100.00;98389.59;5028094;28;20037;-72
2022/11/17 03:24:41;;;;;;;1.60;1.30;;;;;;;9.35;100.00;98386.53;5027611;28;20033;-71
2022/11/17 03:27:19;;;;;;;1.63;1.27;;;;;;;9.32;100.00;98375.16;5026433;28;20374;-73
2022/11/17 03:29:49;;;;;;;1.40;1.10;;;;;;;9.27;100.00;98367.50;5041785;28;20036;-70
2022/11/17 03:32:16;;;;;;;4.22;1.17;;;;;;;9.21;100.00;98376.31;5026672;28;20064;-70
2022/11/17 03:34:47;;;;;;;1.35;0.73;;;;;;;9.16;100.00;98368.66;5028192;28;20033;-71
2022/11/17 03:37:17;;;;;;;3.10;1.00;;;;;;;9.14;100.00;98359.00;5027350;28;20523;-70
2022/11/17 03:39:50;;;;;;;2.75;0.93;;;;;;;9.09;100.00;98364.91;5027335;28;20493;-71
2022/11/17 03:42:19;;;;;;;;;;;;;;;9.12;100.00;98364.56;5028421;28;20046;-71
2022/11/17 03:44:49;;;;;;;1.50;0.70;;;;;;;9.08;100.00;98354.19;5042554;28;20360;-70
2022/11/17 03:47:18;;;;;;;1.08;1.00;;;;;;;9.10;100.00;98352.19;5027691;28;20039;-71
2022/11/17 03:49:54;;;;;;;0.93;0.80;;;;;;;9.13;100.00;98357.28;5027990;28;20384;-71
2022/11/17 03:52:20;;;;;;;2.17;0.70;;;;;;;9.13;100.00;98349.97;5033413;28;20063;-71
2022/11/17 03:54:46;;;;;;;1.30;0.60;;;;;;;9.13;100.00;98346.44;5046181;28;20476;-70
2022/11/17 03:57:19;;;;;;;3.15;0.90;;;;;;;9.17;100.00;98345.09;5046570;28;20036;-71
2022/11/17 03:59:56;;;;;;;2.13;0.60;;;;;;;9.21;100.00;98343.75;5027366;28;20075;-70
2022/11/17 04:02:23;;;;;;;0.75;0.60;;;;;;;9.25;100.00;98337.00;5027437;28;20156;-71
2022/11/17 04:05:04;;;;;;;0.77;0.70;;;;;;;9.27;100.00;98337.66;5025652;28;20043;-70
2022/11/17 04:07:30;;;;;;;1.00;0.60;;;;;;;9.36;100.00;98336.66;5024946;28;20037;-71
2022/11/17 04:09:55;;;;;;;2.58;0.68;;;;;;;9.40;100.00;98324.47;5026723;28;20022;-70
2022/11/17 04:17:49;;;;;;;1.00;0.80;;;;;;;9.57;100.00;98328.09;5027340;28;20033;-71
2022/11/17 04:20:15;;;;;;;1.02;0.50;;;;;;;9.58;100.00;98329.78;5026887;28;20164;-70
2022/11/17 04:22:40;;;;;;;1.00;0.80;;;;;;;9.59;100.00;98331.47;5024786;28;20064;-72
2022/11/17 04:25:06;;;;;;;3.13;0.93;;;;;;;9.65;100.00;98327.22;5026452;28;20132;-71
2022/11/17 04:30:15;;;;;;;0.95;0.85;;;;;;;9.72;100.00;98325.56;5027053;28;20507;-71
2022/11/17 04:32:40;;;;;;;1.00;0.90;;;;;;;9.72;100.00;98331.00;5027346;28;20021;-70
2022/11/17 04:35:06;;;;;;;1.92;1.20;;;;;;;9.70;100.00;98330.31;5026438;28;20033;-71
2022/11/17 04:37:31;;;;;;;1.65;1.25;;;;;;;9.68;100.00;98330.47;5025733;28;20030;-70
2022/11/17 04:39:57;;;;;;;2.67;1.30;;;;;;;9.65;100.00;98319.97;5024826;28;20063;-72
2022/11/17 04:42:22;;;;;;;2.03;1.40;;;;;;;9.63;100.00;98316.53;5026661;28;20033;-72
2022/11/17 04:44:47;;;;;;;2.92;1.55;;;;;;;9.62;100.00;98293.13;5025494;28;20078;-71
2022/11/17 04:47:13;;;;;;;4.10;1.50;;;;;;;9.60;100.00;98292.44;5025543;28;20492;-71
2022/11/17 04:49:38;;;;;;;1.88;1.42;;;;;;;9.58;100.00;98282.78;5036739;28;20468;-73
2022/11/17 04:52:04;;;;;;;2.33;1.30;;;;;;;9.56;100.00;98295.66;5025504;28;20036;-70
2022/11/17 04:54:29;;;;;;;2.33;1.48;;;;;;;9.56;100.00;98284.81;5036706;28;20052;-72
2022/11/17 04:56:56;;;;;;;1.92;1.50;;;;;;;9.53;100.00;98279.72;5008803;28;20045;-71
2022/11/17 04:59:22;;;;;;;3.22;1.75;;;;;;;9.50;100.00;98278.19;5038091;28;20079;-70
2022/11/17 05:01:47;;;;;;;4.72;1.88;;;;;;;9.48;100.00;98277.53;5026836;28;20037;-72
2022/11/17 05:04:54;;;;;;;3.58;1.30;;;;;;;9.47;100.00;98274.97;5026489;28;20037;-73
2022/11/17 05:07:01;;;;;;;4.38;1.70;;;;;;;9.46;100.00;98282.25;5026208;28;20052;-71
2022/11/17 05:09:26;;;;;;;2.63;1.60;;;;;;;9.47;100.00;98288.56;5024594;28;20397;-70
2022/11/17 05:14:35;;;;;;;1.92;1.55;;;;;;;9.45;100.00;98278.69;5026539;28;20823;-70
2022/11/17 05:17:04;;;;;;;3.25;1.75;;;;;;;9.45;100.00;98289.53;5025325;28;20080;-71
2022/11/17 05:19:31;;;;;;;2.80;1.48;;;;;;;9.49;100.00;98289.22;5026513;28;20040;-71
2022/11/17 05:21:56;;;;;;;1.98;1.40;;;;;;;9.50;100.00;98299.91;5034211;28;20179;-69
2022/11/17 05:24:22;;;;;;;3.22;1.40;;;;;;;9.53;100.00;98299.56;5025904;28;20155;-70
2022/11/17 05:26:49;;;;;;;4.72;1.30;;;;;;;9.55;100.00;98312.97;5026416;28;20029;-70
2022/11/17 05:29:16;;;;;;;7.88;1.60;;;;;;;9.57;100.00;98344.38;5026572;28;20091;-69
2022/11/17 05:31:42;;;;;;;3.10;1.35;;;;;;;9.60;100.00;98327.72;5027878;28;20072;-69
2022/11/17 05:34:09;;;;;;;4.75;1.17;;;;;;;9.61;100.00;98331.31;5025588;28;20484;-70
2022/11/17 05:36:35;;;;;;;5.00;1.40;;;;;;;9.62;100.00;98341.16;5028740;28;20013;-70
2022/11/17 05:39:00;;;;;;;3.83;1.45;;;;;;;9.64;100.00;98331.81;5028469;28;20044;-70
2022/11/17 05:41:27;;;;;;;4.78;1.17;;;;;;;9.64;100.00;98330.97;5029553;28;20041;-71
2022/11/17 05:43:53;;;;;;;11.23;1.50;;;;;;;9.65;100.00;98335.38;5029850;28;20045;-70
2022/11/17 05:46:20;;;;;;;3.10;1.35;;;;;;;9.66;100.00;98331.66;5045568;28;20115;-69
2022/11/17 05:48:48;;;;;;;4.45;1.38;;;;;;;9.65;100.00;98330.81;5035597;28;20127;-71
2022/11/17 05:51:14;;;;;;;5.65;1.33;;;;;;;9.63;100.00;98335.56;5027882;28;20052;-70
2022/11/17 05:53:40;;;;;;;6.22;1.73;;;;;;;9.63;100.00;98340.97;5047369;28;20036;-69
2022/11/17 05:56:28;;;;;;;5.20;1.30;;;;;;;9.64;100.00;98339.97;5048080;28;20041;-70
2022/11/17 05:59:12;;;;;;;5.57;1.50;;;;;;;9.64;100.00;98344.53;5045243;28;20381;-69
2022/11/17 06:01:45;;;;;;;5.97;1.50;;;;;;;9.64;100.00;98347.25;5030556;28;20053;-70
2022/11/17 06:04:15;;;;;;;8.60;1.63;;;;;;;9.62;100.00;98336.56;5028305;28;20037;-69
2022/11/17 06:06:40;;;;;;;5.15;1.30;;;;;;;9.65;100.00;98347.09;5029336;28;20059;-70
2022/11/17 06:09:05;;;;;;;9.85;2.17;;;;;;;9.65;100.00;98352.53;5028508;28;20120;-69
2022/11/17 06:11:31;;;;;;;7.72;1.48;;;;;;;9.65;100.00;98352.53;5029502;28;20056;-69
2022/11/17 06:13:56;;;;;;;6.07;1.67;;;;;;;9.67;100.00;98352.38;5041491;28;20036;-70
2022/11/17 06:16:26;;;;;;;10.70;1.90;;;;;;;9.64;100.00;98344.53;5031228;28;20033;-69
2022/11/17 06:18:59;;;;;;;7.50;1.77;;;;;;;9.66;100.00;98350.66;5027866;28;20120;-69
2022/11/17 06:21:25;;;;;;;7.88;1.80;;;;;;;9.65;100.00;98360.69;5038037;28;20388;-70
2022/11/17 06:23:50;;;;;;;7.85;2.08;;;;;;;9.66;100.00;98366.97;5028318;28;20148;-69
2022/11/17 06:26:16;;;;;;;4.82;1.30;;;;;;;9.68;100.00;98363.03;5028039;28;20476;-69
2022/11/17 06:28:45;;;;;;;5.00;1.33;;;;;;;9.69;100.00;98369.31;5028089;28;20025;-69
2022/11/17 06:31:12;;;;;;;8.30;1.70;;;;;;;9.67;100.00;98369.50;5029439;28;20128;-69
2022/11/17 06:33:37;;;;;;;4.07;1.50;;;;;;;9.66;100.00;98370.53;5029088;28;20034;-71
2022/11/17 06:36:05;;;;;;;3.65;1.45;;;;;;;9.66;100.00;98375.09;5027481;28;20064;-71
2022/11/17 06:38:32;;;;;;;4.10;1.50;;;;;;;9.64;100.00;98368.97;5048077;28;20492;-69
2022/11/17 06:40:57;;;;;;;8.77;1.35;;;;;;;9.65;100.00;98386.94;5048103;28;20408;-70
2022/11/17 06:43:23;;;;;;;6.70;1.60;;;;;;;9.60;100.00;98383.88;5038525;28;20041;-69
2022/11/17 06:45:48;;;;;;;3.88;1.20;;;;;;;9.57;100.00;98379.66;5028027;28;20044;-71
2022/11/17 06:48:16;;;;;;;6.75;1.63;;;;;;;9.55;100.00;98388.97;5028514;28;20037;-70
2022/11/17 06:50:43;;;;;;;6.25;1.20;;;;;;;9.51;100.00;98387.59;5027519;28;20025;-70
2022/11/17 06:53:10;;;;;;;3.78;1.10;;;;;;;9.47;100.00;98392.53;5044943;28;20110;-69
2022/11/17 06:55:36;;;;;;;10.75;1.20;;;;;;;9.45;100.00;98395.38;5047899;28;20040;-69
2022/11/17 06:58:07;;;;;;;3.38;0.90;;;;;;;9.44;100.00;98401.81;5045465;28;20103;-68
2022/11/17 07:00:34;;;;;;;5.65;1.40;;;;;;;9.43;100.00;98408.28;5037333;28;20044;-69
2022/11/17 07:03:05;;;;;;;4.65;1.10;;;;;;;9.41;100.00;98404.84;5028114;28;20452;-69
2022/11/17 07:05:32;;;;;;;6.95;1.75;;;;;;;9.37;100.00;98410.78;5036946;28;20392;-69
2022/11/17 07:08:04;;;;;;;5.72;1.20;;;;;;;9.36;100.00;98418.06;5027360;28;20077;-69
2022/11/17 07:10:32;;;;;;;5.57;1.00;;;;;;;9.32;100.00;98411.25;5027819;28;20033;-69
2022/11/17 07:12:58;;;;;;;5.75;1.60;;;;;;;9.30;100.00;98413.31;5032677;28;20053;-69
2022/11/17 07:15:24;;;;;;;5.55;1.20;;;;;;;9.29;100.00;98418.91;5038989;28;20091;-69
2022/11/17 07:17:49;;;;;;;2.58;1.13;;;;;;;9.25;100.00;98410.22;5029243;28;20034;-68
2022/11/17 07:20:16;;;;;;;2.50;0.90;;;;;;;9.27;100.00;98418.19;5029257;28;20037;-69
2022/11/17 07:22:41;;;;;;;3.80;0.90;;;;;;;9.26;100.00;98414.63;5033701;28;20049;-69
2022/11/17 07:25:07;;;;;;;1.65;0.77;;;;;;;9.29;100.00;98421.63;5028439;28;20049;-69
2022/11/17 07:27:33;;;;;;;7.97;1.20;;;;;;;9.26;100.00;98420.06;5044964;28;20017;-68
2022/11/17 07:29:58;;;;;;;5.82;1.00;;;;;;;9.24;100.00;98430.25;5026598;28;20032;-70
2022/11/17 07:32:24;;;;;;;5.13;1.25;;;;;;;9.23;100.00;98430.38;5026554;28;20037;-68
2022/11/17 07:34:50;;;;;;;3.13;1.10;;;;;;;9.22;100.00;98437.69;5026724;28;20092;-69
2022/11/17 07:37:15;;;;;;;2.70;1.15;;;;;;;9.22;100.00;98428.69;5009307;28;20041;-69
2022/11/17 07:39:41;;;;;;;2.80;0.80;;;;;;;9.17;100.00;98434.59;5027479;28;20037;-70
2022/11/17 07:42:06;;;;;;;5.40;0.90;;;;;;;9.16;100.00;98436.47;5026534;28;20034;-69
2022/11/17 07:44:32;;;;;;;6.50;1.23;;;;;;;9.17;100.00;98446.31;5028001;28;20512;-69
2022/11/17 07:46:57;;;;;;;5.57;1.80;;;;;;;9.17;100.00;98446.31;5027836;28;20026;-69
2022/11/17 07:49:23;;;;;;;2.78;0.77;;;;;;;9.17;100.00;98453.59;5026142;28;20112;-68
2022/11/17 07:51:48;;;;;;;3.10;0.75;;;;;;;9.15;100.00;98452.91;5026851;28;20151;-70
2022/11/17 07:54:13;;;;;;;6.05;0.95;;;;;;;9.16;100.00;98462.75;5025078;28;20369;-70
2022/11/17 07:56:39;;;;;;;6.18;1.38;;;;;;;9.14;100.00;98454.78;5026554;28;20041;-69
2022/11/17 07:59:04;;;;;;;4.43;0.90;;;;;;;9.14;100.00;98462.91;5027176;28;20132;-68
2022/11/17 08:01:29;;;;;;;7.00;1.10;;;;;;;9.15;100.00;98466.47;5027255;28;20037;-71
2022/11/17 08:03:55;;;;;;;7.20;1.20;;;;;;;9.18;100.00;98466.97;5030313;28;20071;-69
2022/11/17 08:06:22;;;;;;;4.15;1.20;;;;;;;9.18;100.00;98469.69;5024272;28;20021;-71
2022/11/17 08:08:48;;;;;;;3.83;1.10;;;;;;;9.22;100.00;98478.38;5026315;28;20373;-70
2022/11/17 08:11:14;;;;;;;2.85;1.15;;;;;;;9.25;100.00;98479.94;5027316;28;20067;-69
2022/11/17 08:13:41;;;;;;;2.60;0.95;;;;;;;9.24;100.00;98487.22;5037437;28;20025;-71
2022/11/17 08:16:09;;;;;;;1.70;0.85;;;;;;;9.26;100.00;98485.19;5033039;28;20488;-71
2022/11/17 08:18:35;;;;;;;3.50;1.40;;;;;;;9.27;100.00;98491.47;5027359;28;20037;-70
2022/11/17 08:21:05;;;;;;;3.17;0.75;;;;;;;9.26;100.00;98487.91;5027178;28;20025;-71
2022/11/17 08:23:31;;;;;;;3.35;1.02;;;;;;;9.25;100.00;98498.91;5045328;28;20041;-71
2022/11/17 08:25:57;;;;;;;2.50;0.85;;;;;;;9.23;100.00;98503.63;5046586;28;20040;-68
2022/11/17 08:28:22;;;;;;;4.50;0.98;;;;;;;9.20;100.00;98493.97;5039190;28;20021;-69
2022/11/17 08:30:48;;;;;;;4.68;1.30;;;;;;;9.19;100.00;98503.97;5027000;28;20029;-70
2022/11/17 08:33:13;;;;;;;2.10;0.80;;;;;;;9.18;100.00;98504.97;5027269;28;20473;-73
2022/11/17 08:35:39;;;;;;;5.75;1.65;;;;;;;9.18;100.00;98509.53;5027808;28;20688;-70
2022/11/17 08:38:04;;;;;;;2.40;1.02;;;;;;;9.16;100.00;98504.28;5026259;28;20127;-69
2022/11/17 08:40:30;;;;;;;4.45;1.05;;;;;;;9.15;100.00;98509.88;5026359;28;20453;-70
2022/11/17 08:42:55;;;;;;;3.05;1.27;;;;;;;9.14;100.00;98517.16;5026628;28;20037;-69
2022/11/17 08:45:21;;;;;;;2.17;0.75;;;;;;;9.13;100.00;98512.72;5026919;28;20442;-70
2022/11/17 08:47:46;;;;;;;4.55;1.02;;;;;;;9.10;100.00;98514.94;5027478;28;20176;-69
2022/11/17 08:50:11;;;;;;;1.63;0.90;;;;;;;9.05;100.00;98523.53;5025956;28;20876;-69
2022/11/17 08:52:37;;;;;;;2.55;1.08;;;;;;;9.05;100.00;98514.56;5036389;28;20451;-70
2022/11/17 08:55:04;;;;;;;2.13;1.02;;;;;;;9.06;100.00;98516.25;5025591;28;20504;-70
2022/11/17 08:57:31;;;;;;;5.97;1.10;;;;;;;9.04;100.00;98520.97;5031779;28;20109;-70
2022/11/17 08:59:57;;;;;;;2.25;0.95;;;;;;;9.02;100.00;98521.16;5029180;28;20037;-68
2022/11/17 09:02:22;;;;;;;1.15;0.77;;;;;;;9.01;100.00;98524.88;5046747;28;20456;-70
2022/11/17 09:04:49;;;;;;;2.70;1.08;;;;;;;9.03;100.00;98530.97;5045355;28;20045;-69
2022/11/17 09:07:15;;;;;;;2.08;0.85;;;;;;;9.05;100.00;98528.97;5025450;28;20037;-69
2022/11/17 09:09:40;;;;;;;3.05;0.77;;;;;;;9.07;100.00;98524.22;5027996;28;20037;-70
2022/11/17 09:12:05;;;;;;;3.33;0.95;;;;;;;9.08;100.00;98534.06;5029279;28;20088;-69
2022/11/17 09:14:31;;;;;;;4.65;1.13;;;;;;;9.08;100.00;98531.34;5045937;28;20794;-70
2022/11/17 09:16:56;;;;;;;3.13;0.77;;;;;;;9.07;100.00;98543.22;5030790;28;20543;-69
2022/11/17 09:19:21;;;;;;;3.60;0.85;;;;;;;9.11;100.00;98533.75;5028941;28;20045;-69
2022/11/17 09:21:47;;;;;;;0.93;0.90;;;;;;;9.12;100.00;98545.44;5029814;28;20087;-69
2022/11/17 09:24:12;;;;;;;3.25;1.00;;;;;;;9.10;100.00;98539.34;5030188;28;20087;-68
2022/11/17 09:26:39;;;;;;;2.95;0.75;;;;;;;9.13;100.00;98555.28;5029641;28;20116;-70
2022/11/17 09:29:06;;;;;;;4.32;0.73;;;;;;;9.15;100.00;98562.25;5030389;28;20055;-69
2022/11/17 09:31:31;;;;;;;1.73;0.80;;;;;;;9.20;100.00;98556.38;5030151;28;20473;-70
2022/11/17 09:33:57;;;;;;;3.42;1.30;;;;;;;9.17;100.00;98568.38;5030282;28;20069;-68
2022/11/17 09:36:22;;;;;;;2.20;0.93;;;;;;;9.19;100.00;98555.53;5042202;28;20021;-70
2022/11/17 09:38:49;;;;;;;4.03;1.05;;;;;;;9.23;100.00;98558.75;5029145;28;20079;-70
2022/11/17 09:41:14;;;;;;;2.85;0.80;;;;;;;9.25;100.00;98564.88;5029997;28;20080;-69
2022/11/17 09:43:47;;;;;;;1.90;0.80;;;;;;;9.31;100.00;98571.53;5029259;28;20063;-68
2022/11/17 09:46:18;;;;;;;2.40;1.10;;;;;;;9.34;100.00;98571.22;5043848;28;20052;-70
2022/11/17 09:48:57;;;;;;;4.45;0.98;;;;;;;9.41;100.00;98574.97;5039998;28;20033;-69
2022/11/17 09:51:25;;;;;;;4.22;1.20;;;;;;;9.49;100.00;98583.19;5029673;28;20069;-69
2022/11/17 09:53:58;;;;;;;3.65;1.00;;;;;;;9.53;100.00;98589.16;5027465;28;20045;-69
2022/11/17 09:56:26;;;;;;;1.60;1.10;;;;;;;9.60;100.00;98582.03;5029593;28;20128;-70
2022/11/17 09:59:00;;;;;;;3.35;0.77;;;;;;;9.66;100.00;98587.69;5029495;28;20048;-69
2022/11/17 10:01:27;;;;;;;4.35;1.00;;;;;;;9.70;100.00;98591.81;5028375;28;20489;-69
2022/11/17 10:03:55;;;;;;;3.25;0.98;;;;;;;9.73;100.00;98593.31;5011456;28;20088;-69
2022/11/17 10:06:25;;;;;;;5.97;1.10;;;;;;;9.74;99.78;98591.47;5027690;28;20397;-68
2022/11/17 10:09:05;;;;;;;3.90;0.93;;;;;;;9.78;99.76;98595.56;5027173;28;20140;-70
2022/11/17 10:11:34;;;;;;;1.38;0.70;;;;;;;9.80;100.00;98610.69;5029643;28;20049;-68
2022/11/17 10:14:12;;;;;;;2.97;0.90;;;;;;;9.87;98.40;98605.44;5028497;28;20464;-68
2022/11/17 10:16:51;;;;;;;1.73;0.90;;;;;;;9.88;98.62;98605.28;5045207;28;20622;-68
2022/11/17 10:19:31;;;;;;;4.07;1.15;;;;;;;9.97;98.41;98609.75;5044541;28;20041;-72
2022/11/17 10:22:02;;;;;;;0.80;0.60;;;;;;;10.02;98.59;98605.69;5027540;28;20488;-70
2022/11/17 10:24:42;;;;;;;2.85;1.30;;;;;;;10.10;97.61;98620.16;5028807;28;20171;-69
2022/11/17 10:27:16;;;;;;;4.13;0.95;;;;;;;10.16;98.04;98616.78;5011412;28;20094;-72
2022/11/17 10:30:02;;;;;;;1.35;0.98;;;;;;;10.21;96.40;98619.88;5030711;28;20088;-69
2022/11/17 10:32:33;;;;;;;3.20;0.75;;;;;;;10.25;95.07;98623.13;5048902;28;20037;-68
2022/11/17 10:35:31;;;;;;;5.63;1.23;;;;;;;10.29;96.16;98635.38;5047901;28;20040;-69
2022/11/17 10:38:02;;;;;;;3.65;1.20;;;;;;;10.35;95.87;98633.88;5043335;28;20037;-71
2022/11/17 10:40:31;;;;;;;3.97;0.98;;;;;;;10.42;95.25;98637.66;5026747;28;20142;-69
2022/11/17 10:43:11;;;;;;;4.30;1.10;;;;;;;10.50;95.54;98634.97;5028788;28;20043;-68
2022/11/17 10:45:43;;;;;;;3.47;0.70;;;;;;;10.56;94.25;98642.47;5028826;28;20038;-69
2022/11/17 10:48:29;;;;;;;5.80;0.82;;;;;;;10.60;95.09;98645.69;5029064;28;20049;-69
2022/11/17 10:51:20;;;;;;;5.75;0.90;;;;;;;10.62;93.16;98640.94;5028048;28;20040;-69
2022/11/17 10:54:16;;;;;;;5.05;1.08;;;;;;;10.59;93.28;98650.28;5035201;28;20053;-67
2022/11/17 10:56:54;;;;;;;2.65;1.00;;;;;;;10.54;93.02;98655.38;5031163;28;20033;-72
2022/11/17 10:59:29;;;;;;;4.82;0.90;;;;;;;10.51;93.20;98650.25;5031393;28;20120;-68
2022/11/17 11:01:54;;;;;;;1.73;0.80;;;;;;;10.48;92.49;98650.56;5028063;28;20465;-68
2022/11/17 11:04:40;;;;;;;4.70;0.88;;;;;;;10.44;92.75;98650.06;5010637;28;20036;-70
2022/11/17 11:07:29;;;;;;;2.28;0.93;;;;;;;10.46;92.63;98658.06;5032561;28;20388;-69
2022/11/17 11:09:54;;;;;;;5.25;1.00;;;;;;;10.45;93.83;98667.25;5047483;28;20036;-69
2022/11/17 11:12:31;;;;;;;5.13;1.75;;;;;;;10.45;92.33;98669.97;5048047;28;20045;-68
2022/11/17 11:14:58;;;;;;;2.28;1.35;;;;;;;10.41;92.33;98666.72;5028442;28;20151;-68
2022/11/17 11:17:26;;;;;;;2.95;1.00;;;;;;;10.46;91.81;98661.63;5026844;28;20048;-69
2022/11/17 11:19:52;;;;;;;4.40;0.82;;;;;;;10.47;93.81;98667.91;5027636;28;20043;-68
2022/11/17 11:22:25;;;;;;;2.28;0.80;;;;;;;10.48;93.78;98665.03;5027147;28;20045;-68
2022/11/17 11:25:09;;;;;;;1.08;0.70;;;;;;;10.48;93.78;98667.75;5027607;28;20132;-71
2022/11/17 11:27:56;;;;;;;1.20;0.75;;;;;;;10.49;92.15;98676.75;5027692;28;20033;-69
2022/11/17 11:30:21;;;;;;;6.57;3.15;;;;;;;10.49;93.88;98668.59;5033934;28;20060;-68
2022/11/17 11:32:53;;;;;;;3.33;1.02;;;;;;;10.48;92.55;98669.59;5029402;28;20105;-69
2022/11/17 11:35:46;;;;;;;4.50;1.33;;;;;;;10.48;93.16;98673.16;5044438;28;20037;-67
2022/11/17 11:38:19;;;;;;;4.85;0.93;;;;;;;10.48;93.00;98684.06;5027227;28;20504;-72
2022/11/17 11:41:10;;;;;;;7.22;0.98;;;;;;;10.49;92.61;98674.03;5027376;28;20041;-69
2022/11/17 11:43:46;;;;;;;1.50;0.80;;;;;;;10.49;92.46;98687.63;5035847;28;20044;-69
2022/11/17 11:46:20;;;;;;;1.45;0.75;;;;;;;10.48;92.28;98683.19;5033072;28;20033;-68
2022/11/17 11:48:49;;;;;;;3.25;1.08;;;;;;;10.50;91.53;98696.66;5027560;28;20048;-70
2022/11/17 11:51:18;;;;;;;4.82;1.20;;;;;;;10.43;91.61;98691.84;5027383;28;20028;-70
2022/11/17 11:54:13;;;;;;;4.07;1.20;;;;;;;10.41;92.48;98693.88;5025292;28;20437;-69
2022/11/17 11:56:44;;;;;;;2.00;1.00;;;;;;;10.40;93.39;98699.50;5026884;28;20476;-68
2022/11/17 11:59:19;;;;;;;2.60;0.95;;;;;;;10.41;93.04;98702.03;5026419;28;20038;-69
2022/11/17 12:02:01;;;;;;;4.50;1.10;;;;;;;10.40;93.21;98697.63;5025882;28;20069;-68
2022/11/17 12:04:46;;;;;;;2.83;1.05;;;;;;;10.48;92.23;98696.78;5026897;28;20041;-68
2022/11/17 12:07:18;;;;;;;4.45;1.00;;;;;;;10.50;92.49;98710.25;5027131;28;20132;-69
2022/11/17 12:10:02;;;;;;;6.53;1.10;;;;;;;10.52;90.30;98697.31;5025380;28;20063;-70